sensor_id;sensor_type;location;lat;lon;timestamp;P1;durP1;ratioP1;P2;durP2;ratioP2
68866;SDS011;56451;44.804;20.476;2023-07-08T00:00:23;10.07;;;5.05;;
68866;SDS011;56451;44.804;20.476;2023-07-08T00:02:51;9.20;;;5.13;;
68866;SDS011;56451;44.804;20.476;2023-07-08T00:05:18;6.47;;;4.72;;
68866;SDS011;56451;44.804;20.476;2023-07-08T00:07:45;7.80;;;5.15;;
68866;SDS011;56451;44.804;20.476;2023-07-08T00:10:13;8.90;;;5.33;;
68866;SDS011;56451;44.804;20.476;2023-07-08T00:12:51;11.07;;;5.13;;
68866;SDS011;56451;44.804;20.476;2023-07-08T00:15:21;7.30;;;4.85;;
68866;SDS011;56451;44.804;20.476;2023-07-08T00:17:51;7.18;;;4.55;;
68866;SDS011;56451;44.804;20.476;2023-07-08T00:20:20;9.90;;;5.13;;
68866;SDS011;56451;44.804;20.476;2023-07-08T00:22:54;8.45;;;4.38;;
68866;SDS011;56451;44.804;20.476;2023-07-08T00:25:20;6.68;;;4.88;;
68866;SDS011;56451;44.804;20.476;2023-07-08T00:27:46;9.38;;;4.68;;
68866;SDS011;56451;44.804;20.476;2023-07-08T00:30:26;10.05;;;5.43;;
68866;SDS011;56451;44.804;20.476;2023-07-08T00:32:55;11.93;;;5.07;;
68866;SDS011;56451;44.804;20.476;2023-07-08T00:37:58;14.85;;;5.50;;
68866;SDS011;56451;44.804;20.476;2023-07-08T00:40:30;6.88;;;4.90;;
68866;SDS011;56451;44.804;20.476;2023-07-08T00:43:02;9.40;;;5.05;;
68866;SDS011;56451;44.804;20.476;2023-07-08T00:48:22;10.75;;;5.10;;
68866;SDS011;56451;44.804;20.476;2023-07-08T00:50:49;7.70;;;4.93;;
68866;SDS011;56451;44.804;20.476;2023-07-08T00:53:27;8.57;;;5.28;;
68866;SDS011;56451;44.804;20.476;2023-07-08T00:58:37;7.33;;;4.37;;
68866;SDS011;56451;44.804;20.476;2023-07-08T01:01:15;7.57;;;5.38;;
68866;SDS011;56451;44.804;20.476;2023-07-08T01:03:55;11.43;;;5.05;;
68866;SDS011;56451;44.804;20.476;2023-07-08T01:06:28;9.23;;;4.90;;
68866;SDS011;56451;44.804;20.476;2023-07-08T01:09:01;11.52;;;5.03;;
68866;SDS011;56451;44.804;20.476;2023-07-08T01:11:28;9.07;;;4.70;;
68866;SDS011;56451;44.804;20.476;2023-07-08T01:13:55;8.77;;;5.20;;
68866;SDS011;56451;44.804;20.476;2023-07-08T01:16:22;6.15;;;4.20;;
68866;SDS011;56451;44.804;20.476;2023-07-08T01:18:48;8.13;;;5.13;;
68866;SDS011;56451;44.804;20.476;2023-07-08T01:24:05;8.67;;;5.00;;
68866;SDS011;56451;44.804;20.476;2023-07-08T01:26:33;9.57;;;5.60;;
68866;SDS011;56451;44.804;20.476;2023-07-08T01:29:03;6.75;;;4.82;;
68866;SDS011;56451;44.804;20.476;2023-07-08T01:31:29;9.77;;;4.95;;
68866;SDS011;56451;44.804;20.476;2023-07-08T01:33:56;11.38;;;5.63;;
68866;SDS011;56451;44.804;20.476;2023-07-08T01:36:23;9.17;;;4.67;;
68866;SDS011;56451;44.804;20.476;2023-07-08T01:38:49;8.27;;;4.85;;
68866;SDS011;56451;44.804;20.476;2023-07-08T01:41:15;14.05;;;4.85;;
68866;SDS011;56451;44.804;20.476;2023-07-08T01:43:43;9.65;;;4.40;;
68866;SDS011;56451;44.804;20.476;2023-07-08T01:46:20;9.10;;;4.43;;
68866;SDS011;56451;44.804;20.476;2023-07-08T01:48:51;6.13;;;4.20;;
68866;SDS011;56451;44.804;20.476;2023-07-08T01:51:19;6.43;;;4.47;;
68866;SDS011;56451;44.804;20.476;2023-07-08T01:53:47;7.72;;;4.88;;
68866;SDS011;56451;44.804;20.476;2023-07-08T01:56:13;6.85;;;5.10;;
68866;SDS011;56451;44.804;20.476;2023-07-08T01:58:40;10.23;;;5.50;;
68866;SDS011;56451;44.804;20.476;2023-07-08T02:01:07;9.95;;;5.28;;
68866;SDS011;56451;44.804;20.476;2023-07-08T02:03:33;7.55;;;4.82;;
68866;SDS011;56451;44.804;20.476;2023-07-08T02:05:59;9.23;;;5.00;;
68866;SDS011;56451;44.804;20.476;2023-07-08T02:08:25;14.25;;;5.97;;
68866;SDS011;56451;44.804;20.476;2023-07-08T02:10:52;10.47;;;5.60;;
68866;SDS011;56451;44.804;20.476;2023-07-08T02:13:20;9.25;;;5.57;;
68866;SDS011;56451;44.804;20.476;2023-07-08T02:15:47;9.88;;;5.72;;
68866;SDS011;56451;44.804;20.476;2023-07-08T02:18:14;9.02;;;5.65;;
68866;SDS011;56451;44.804;20.476;2023-07-08T02:20:44;8.37;;;5.57;;
68866;SDS011;56451;44.804;20.476;2023-07-08T02:23:11;9.30;;;5.65;;
68866;SDS011;56451;44.804;20.476;2023-07-08T02:25:37;10.55;;;5.63;;
68866;SDS011;56451;44.804;20.476;2023-07-08T02:28:03;10.45;;;5.65;;
68866;SDS011;56451;44.804;20.476;2023-07-08T02:30:29;9.73;;;5.67;;
68866;SDS011;56451;44.804;20.476;2023-07-08T02:32:55;10.18;;;5.88;;
68866;SDS011;56451;44.804;20.476;2023-07-08T02:35:30;10.38;;;5.47;;
68866;SDS011;56451;44.804;20.476;2023-07-08T02:37:56;12.95;;;5.43;;
68866;SDS011;56451;44.804;20.476;2023-07-08T02:40:23;8.55;;;5.25;;
68866;SDS011;56451;44.804;20.476;2023-07-08T02:42:50;6.80;;;4.90;;
68866;SDS011;56451;44.804;20.476;2023-07-08T02:45:17;8.57;;;4.78;;
68866;SDS011;56451;44.804;20.476;2023-07-08T02:47:43;9.77;;;5.30;;
68866;SDS011;56451;44.804;20.476;2023-07-08T02:50:10;10.45;;;5.35;;
68866;SDS011;56451;44.804;20.476;2023-07-08T02:52:36;9.67;;;5.50;;
68866;SDS011;56451;44.804;20.476;2023-07-08T02:55:02;10.77;;;5.88;;
68866;SDS011;56451;44.804;20.476;2023-07-08T02:57:29;12.00;;;5.22;;
68866;SDS011;56451;44.804;20.476;2023-07-08T02:59:55;9.70;;;5.07;;
68866;SDS011;56451;44.804;20.476;2023-07-08T03:02:21;9.93;;;5.27;;
68866;SDS011;56451;44.804;20.476;2023-07-08T03:04:49;12.02;;;5.65;;
68866;SDS011;56451;44.804;20.476;2023-07-08T03:07:15;8.48;;;5.40;;
68866;SDS011;56451;44.804;20.476;2023-07-08T03:09:41;8.27;;;5.68;;
68866;SDS011;56451;44.804;20.476;2023-07-08T03:12:08;10.10;;;5.63;;
68866;SDS011;56451;44.804;20.476;2023-07-08T03:14:36;9.82;;;5.57;;
68866;SDS011;56451;44.804;20.476;2023-07-08T03:17:02;10.20;;;5.55;;
68866;SDS011;56451;44.804;20.476;2023-07-08T03:19:29;8.43;;;5.95;;
68866;SDS011;56451;44.804;20.476;2023-07-08T03:21:56;9.93;;;5.80;;
68866;SDS011;56451;44.804;20.476;2023-07-08T03:24:23;10.80;;;5.93;;
68866;SDS011;56451;44.804;20.476;2023-07-08T03:26:49;9.48;;;5.75;;
68866;SDS011;56451;44.804;20.476;2023-07-08T03:29:21;11.30;;;5.85;;
68866;SDS011;56451;44.804;20.476;2023-07-08T03:31:47;12.25;;;6.25;;
68866;SDS011;56451;44.804;20.476;2023-07-08T03:34:14;9.70;;;6.00;;
68866;SDS011;56451;44.804;20.476;2023-07-08T03:36:43;10.80;;;5.65;;
68866;SDS011;56451;44.804;20.476;2023-07-08T03:39:19;15.05;;;5.70;;
68866;SDS011;56451;44.804;20.476;2023-07-08T03:41:47;7.72;;;5.20;;
68866;SDS011;56451;44.804;20.476;2023-07-08T03:44:14;10.60;;;5.63;;
68866;SDS011;56451;44.804;20.476;2023-07-08T03:46:42;10.40;;;6.00;;
68866;SDS011;56451;44.804;20.476;2023-07-08T03:49:14;10.40;;;5.78;;
68866;SDS011;56451;44.804;20.476;2023-07-08T03:51:41;17.23;;;6.13;;
68866;SDS011;56451;44.804;20.476;2023-07-08T03:54:09;9.50;;;5.93;;
68866;SDS011;56451;44.804;20.476;2023-07-08T03:56:38;10.65;;;6.45;;
68866;SDS011;56451;44.804;20.476;2023-07-08T03:59:04;10.20;;;6.13;;
68866;SDS011;56451;44.804;20.476;2023-07-08T04:01:31;12.27;;;6.60;;
68866;SDS011;56451;44.804;20.476;2023-07-08T04:03:58;9.95;;;5.65;;
68866;SDS011;56451;44.804;20.476;2023-07-08T04:06:25;11.77;;;6.05;;
68866;SDS011;56451;44.804;20.476;2023-07-08T04:08:52;10.23;;;5.90;;
68866;SDS011;56451;44.804;20.476;2023-07-08T04:11:20;15.63;;;6.43;;
68866;SDS011;56451;44.804;20.476;2023-07-08T04:13:48;9.20;;;6.20;;
68866;SDS011;56451;44.804;20.476;2023-07-08T04:16:17;12.45;;;6.13;;
68866;SDS011;56451;44.804;20.476;2023-07-08T04:18:49;11.75;;;6.38;;
68866;SDS011;56451;44.804;20.476;2023-07-08T04:21:20;11.70;;;6.18;;
68866;SDS011;56451;44.804;20.476;2023-07-08T04:23:47;11.13;;;6.33;;
68866;SDS011;56451;44.804;20.476;2023-07-08T04:26:13;12.02;;;6.50;;
68866;SDS011;56451;44.804;20.476;2023-07-08T04:28:41;10.05;;;5.65;;
68866;SDS011;56451;44.804;20.476;2023-07-08T04:31:07;10.13;;;6.18;;
68866;SDS011;56451;44.804;20.476;2023-07-08T04:33:33;10.27;;;6.20;;
68866;SDS011;56451;44.804;20.476;2023-07-08T04:35:59;11.32;;;6.28;;
68866;SDS011;56451;44.804;20.476;2023-07-08T04:38:26;12.60;;;6.15;;
68866;SDS011;56451;44.804;20.476;2023-07-08T04:40:53;9.15;;;6.40;;
68866;SDS011;56451;44.804;20.476;2023-07-08T04:43:23;8.57;;;6.07;;
68866;SDS011;56451;44.804;20.476;2023-07-08T04:45:54;8.97;;;5.57;;
68866;SDS011;56451;44.804;20.476;2023-07-08T04:48:22;9.20;;;5.90;;
68866;SDS011;56451;44.804;20.476;2023-07-08T04:50:51;11.98;;;5.95;;
68866;SDS011;56451;44.804;20.476;2023-07-08T04:53:18;9.60;;;5.68;;
68866;SDS011;56451;44.804;20.476;2023-07-08T04:55:46;12.55;;;6.13;;
68866;SDS011;56451;44.804;20.476;2023-07-08T04:58:18;11.27;;;6.00;;
68866;SDS011;56451;44.804;20.476;2023-07-08T05:00:44;10.52;;;5.78;;
68866;SDS011;56451;44.804;20.476;2023-07-08T05:03:14;12.55;;;6.35;;
68866;SDS011;56451;44.804;20.476;2023-07-08T05:05:40;10.68;;;6.30;;
68866;SDS011;56451;44.804;20.476;2023-07-08T05:08:11;14.03;;;6.53;;
68866;SDS011;56451;44.804;20.476;2023-07-08T05:10:38;10.13;;;6.10;;
68866;SDS011;56451;44.804;20.476;2023-07-08T05:13:04;12.55;;;5.78;;
68866;SDS011;56451;44.804;20.476;2023-07-08T05:15:34;9.15;;;6.03;;
68866;SDS011;56451;44.804;20.476;2023-07-08T05:18:02;13.80;;;6.82;;
68866;SDS011;56451;44.804;20.476;2023-07-08T05:20:29;11.87;;;6.30;;
68866;SDS011;56451;44.804;20.476;2023-07-08T05:22:56;10.25;;;6.72;;
68866;SDS011;56451;44.804;20.476;2023-07-08T05:25:22;11.57;;;6.45;;
68866;SDS011;56451;44.804;20.476;2023-07-08T05:27:48;11.18;;;6.72;;
68866;SDS011;56451;44.804;20.476;2023-07-08T05:30:15;12.53;;;7.00;;
68866;SDS011;56451;44.804;20.476;2023-07-08T05:32:42;10.77;;;6.13;;
68866;SDS011;56451;44.804;20.476;2023-07-08T05:35:09;10.38;;;6.63;;
68866;SDS011;56451;44.804;20.476;2023-07-08T05:37:35;9.57;;;6.40;;
68866;SDS011;56451;44.804;20.476;2023-07-08T05:40:03;11.02;;;6.22;;
68866;SDS011;56451;44.804;20.476;2023-07-08T05:42:30;8.87;;;5.83;;
68866;SDS011;56451;44.804;20.476;2023-07-08T05:44:56;9.13;;;6.78;;
68866;SDS011;56451;44.804;20.476;2023-07-08T05:47:22;11.35;;;6.55;;
68866;SDS011;56451;44.804;20.476;2023-07-08T05:49:48;10.30;;;6.22;;
68866;SDS011;56451;44.804;20.476;2023-07-08T05:52:14;10.90;;;6.77;;
68866;SDS011;56451;44.804;20.476;2023-07-08T05:54:45;10.80;;;6.07;;
68866;SDS011;56451;44.804;20.476;2023-07-08T05:57:16;9.25;;;5.85;;
68866;SDS011;56451;44.804;20.476;2023-07-08T05:59:43;9.07;;;6.18;;
68866;SDS011;56451;44.804;20.476;2023-07-08T06:02:12;10.88;;;6.03;;
68866;SDS011;56451;44.804;20.476;2023-07-08T06:04:39;9.03;;;6.23;;
68866;SDS011;56451;44.804;20.476;2023-07-08T06:07:08;9.25;;;6.35;;
68866;SDS011;56451;44.804;20.476;2023-07-08T06:09:38;13.80;;;6.18;;
68866;SDS011;56451;44.804;20.476;2023-07-08T06:12:07;9.82;;;6.28;;
68866;SDS011;56451;44.804;20.476;2023-07-08T06:14:45;9.57;;;6.03;;
68866;SDS011;56451;44.804;20.476;2023-07-08T06:17:11;9.07;;;5.70;;
68866;SDS011;56451;44.804;20.476;2023-07-08T06:19:37;13.50;;;6.40;;
68866;SDS011;56451;44.804;20.476;2023-07-08T06:22:04;12.65;;;6.57;;
68866;SDS011;56451;44.804;20.476;2023-07-08T06:24:30;11.30;;;6.45;;
68866;SDS011;56451;44.804;20.476;2023-07-08T06:26:57;8.77;;;6.10;;
68866;SDS011;56451;44.804;20.476;2023-07-08T06:29:29;12.95;;;5.75;;
68866;SDS011;56451;44.804;20.476;2023-07-08T06:32:00;7.55;;;5.30;;
68866;SDS011;56451;44.804;20.476;2023-07-08T06:34:46;10.93;;;5.65;;
68866;SDS011;56451;44.804;20.476;2023-07-08T06:37:21;11.17;;;5.90;;
68866;SDS011;56451;44.804;20.476;2023-07-08T06:39:47;9.53;;;5.73;;
68866;SDS011;56451;44.804;20.476;2023-07-08T06:42:13;8.73;;;5.57;;
68866;SDS011;56451;44.804;20.476;2023-07-08T06:44:46;10.02;;;5.47;;
68866;SDS011;56451;44.804;20.476;2023-07-08T06:47:19;9.52;;;5.97;;
68866;SDS011;56451;44.804;20.476;2023-07-08T06:49:47;10.87;;;5.63;;
68866;SDS011;56451;44.804;20.476;2023-07-08T06:52:13;9.13;;;5.32;;
68866;SDS011;56451;44.804;20.476;2023-07-08T06:54:39;9.90;;;5.32;;
68866;SDS011;56451;44.804;20.476;2023-07-08T06:57:06;8.88;;;4.95;;
68866;SDS011;56451;44.804;20.476;2023-07-08T06:59:32;7.38;;;5.50;;
68866;SDS011;56451;44.804;20.476;2023-07-08T07:01:59;8.00;;;4.97;;
68866;SDS011;56451;44.804;20.476;2023-07-08T07:04:25;9.85;;;5.45;;
68866;SDS011;56451;44.804;20.476;2023-07-08T07:06:51;10.82;;;5.53;;
68866;SDS011;56451;44.804;20.476;2023-07-08T07:09:16;7.67;;;5.17;;
68866;SDS011;56451;44.804;20.476;2023-07-08T07:11:44;9.55;;;5.28;;
68866;SDS011;56451;44.804;20.476;2023-07-08T07:14:10;9.85;;;5.07;;
68866;SDS011;56451;44.804;20.476;2023-07-08T07:16:36;9.25;;;4.97;;
68866;SDS011;56451;44.804;20.476;2023-07-08T07:19:02;8.43;;;5.00;;
68866;SDS011;56451;44.804;20.476;2023-07-08T07:21:28;7.27;;;4.73;;
68866;SDS011;56451;44.804;20.476;2023-07-08T07:23:54;7.95;;;5.10;;
68866;SDS011;56451;44.804;20.476;2023-07-08T07:26:20;6.90;;;4.88;;
68866;SDS011;56451;44.804;20.476;2023-07-08T07:28:46;8.02;;;4.32;;
68866;SDS011;56451;44.804;20.476;2023-07-08T07:31:12;6.43;;;4.27;;
68866;SDS011;56451;44.804;20.476;2023-07-08T07:33:38;8.15;;;4.43;;
68866;SDS011;56451;44.804;20.476;2023-07-08T07:36:04;7.03;;;5.00;;
68866;SDS011;56451;44.804;20.476;2023-07-08T07:38:32;8.40;;;4.47;;
68866;SDS011;56451;44.804;20.476;2023-07-08T07:41:08;6.13;;;4.35;;
68866;SDS011;56451;44.804;20.476;2023-07-08T07:43:39;8.98;;;5.57;;
68866;SDS011;56451;44.804;20.476;2023-07-08T07:46:05;8.30;;;5.22;;
68866;SDS011;56451;44.804;20.476;2023-07-08T07:48:33;8.20;;;5.00;;
68866;SDS011;56451;44.804;20.476;2023-07-08T07:50:59;9.07;;;4.78;;
68866;SDS011;56451;44.804;20.476;2023-07-08T07:53:25;10.48;;;4.82;;
68866;SDS011;56451;44.804;20.476;2023-07-08T07:55:55;7.45;;;4.90;;
68866;SDS011;56451;44.804;20.476;2023-07-08T07:58:25;8.63;;;4.50;;
68866;SDS011;56451;44.804;20.476;2023-07-08T08:00:52;7.13;;;4.70;;
68866;SDS011;56451;44.804;20.476;2023-07-08T08:03:20;6.75;;;4.47;;
68866;SDS011;56451;44.804;20.476;2023-07-08T08:05:51;7.07;;;4.30;;
68866;SDS011;56451;44.804;20.476;2023-07-08T08:08:18;6.35;;;4.50;;
68866;SDS011;56451;44.804;20.476;2023-07-08T08:10:52;6.23;;;4.30;;
68866;SDS011;56451;44.804;20.476;2023-07-08T08:13:19;3.72;;;2.95;;
68866;SDS011;56451;44.804;20.476;2023-07-08T08:15:44;7.45;;;3.60;;
68866;SDS011;56451;44.804;20.476;2023-07-08T08:18:10;7.43;;;3.83;;
68866;SDS011;56451;44.804;20.476;2023-07-08T08:20:36;6.47;;;3.47;;
68866;SDS011;56451;44.804;20.476;2023-07-08T08:23:02;6.38;;;3.50;;
68866;SDS011;56451;44.804;20.476;2023-07-08T08:25:34;7.65;;;3.22;;
68866;SDS011;56451;44.804;20.476;2023-07-08T08:28:01;5.03;;;3.30;;
68866;SDS011;56451;44.804;20.476;2023-07-08T08:30:26;6.88;;;3.60;;
68866;SDS011;56451;44.804;20.476;2023-07-08T08:32:52;3.45;;;2.50;;
68866;SDS011;56451;44.804;20.476;2023-07-08T08:35:18;6.37;;;3.10;;
68866;SDS011;56451;44.804;20.476;2023-07-08T08:37:45;4.97;;;3.40;;
68866;SDS011;56451;44.804;20.476;2023-07-08T08:40:32;5.70;;;3.20;;
68866;SDS011;56451;44.804;20.476;2023-07-08T08:51:33;4.18;;;2.97;;
68866;SDS011;56451;44.804;20.476;2023-07-08T08:53:59;6.05;;;2.97;;
68866;SDS011;56451;44.804;20.476;2023-07-08T08:59:58;4.60;;;3.13;;
68866;SDS011;56451;44.804;20.476;2023-07-08T09:05:35;5.78;;;2.60;;
68866;SDS011;56451;44.804;20.476;2023-07-08T09:08:12;5.07;;;2.80;;
68866;SDS011;56451;44.804;20.476;2023-07-08T09:13:31;5.17;;;2.97;;
68866;SDS011;56451;44.804;20.476;2023-07-08T09:16:04;6.43;;;3.28;;
68866;SDS011;56451;44.804;20.476;2023-07-08T09:19:04;5.57;;;3.05;;
68866;SDS011;56451;44.804;20.476;2023-07-08T09:21:43;6.20;;;3.38;;
68866;SDS011;56451;44.804;20.476;2023-07-08T09:24:16;4.40;;;3.08;;
68866;SDS011;56451;44.804;20.476;2023-07-08T09:26:46;6.30;;;3.50;;
68866;SDS011;56451;44.804;20.476;2023-07-08T09:29:13;4.13;;;2.75;;
68866;SDS011;56451;44.804;20.476;2023-07-08T09:31:39;8.02;;;2.88;;
68866;SDS011;56451;44.804;20.476;2023-07-08T09:34:12;4.95;;;3.20;;
68866;SDS011;56451;44.804;20.476;2023-07-08T09:36:43;4.63;;;3.20;;
68866;SDS011;56451;44.804;20.476;2023-07-08T09:39:15;5.37;;;3.17;;
68866;SDS011;56451;44.804;20.476;2023-07-08T09:41:44;3.47;;;3.17;;
68866;SDS011;56451;44.804;20.476;2023-07-08T09:44:14;4.28;;;3.10;;
68866;SDS011;56451;44.804;20.476;2023-07-08T09:46:48;5.68;;;3.25;;
68866;SDS011;56451;44.804;20.476;2023-07-08T09:51:49;4.93;;;3.37;;
68866;SDS011;56451;44.804;20.476;2023-07-08T09:54:19;4.55;;;3.78;;
68866;SDS011;56451;44.804;20.476;2023-07-08T09:56:52;6.53;;;3.60;;
68866;SDS011;56451;44.804;20.476;2023-07-08T09:59:30;7.22;;;3.30;;
68866;SDS011;56451;44.804;20.476;2023-07-08T10:02:02;7.68;;;3.42;;
68866;SDS011;56451;44.804;20.476;2023-07-08T10:04:39;9.50;;;3.93;;
68866;SDS011;56451;44.804;20.476;2023-07-08T10:07:05;8.85;;;3.92;;
68866;SDS011;56451;44.804;20.476;2023-07-08T10:09:37;6.38;;;3.75;;
68866;SDS011;56451;44.804;20.476;2023-07-08T10:12:06;6.65;;;3.47;;
68866;SDS011;56451;44.804;20.476;2023-07-08T10:18:14;7.50;;;3.97;;
68866;SDS011;56451;44.804;20.476;2023-07-08T10:26:26;7.82;;;3.78;;
68866;SDS011;56451;44.804;20.476;2023-07-08T10:34:46;6.15;;;3.53;;
68866;SDS011;56451;44.804;20.476;2023-07-08T10:37:22;6.38;;;3.72;;
68866;SDS011;56451;44.804;20.476;2023-07-08T11:00:16;5.57;;;3.27;;
68866;SDS011;56451;44.804;20.476;2023-07-08T11:05:42;4.55;;;3.28;;
68866;SDS011;56451;44.804;20.476;2023-07-08T11:13:20;6.00;;;3.23;;
68866;SDS011;56451;44.804;20.476;2023-07-08T11:18:15;7.38;;;3.33;;
68866;SDS011;56451;44.804;20.476;2023-07-08T11:20:56;9.25;;;3.50;;
68866;SDS011;56451;44.804;20.476;2023-07-08T11:23:44;7.30;;;3.20;;
68866;SDS011;56451;44.804;20.476;2023-07-08T11:26:20;6.53;;;3.15;;
68866;SDS011;56451;44.804;20.476;2023-07-08T11:28:53;5.60;;;3.20;;
68866;SDS011;56451;44.804;20.476;2023-07-08T11:31:22;6.88;;;3.25;;
68866;SDS011;56451;44.804;20.476;2023-07-08T11:33:50;7.28;;;3.30;;
68866;SDS011;56451;44.804;20.476;2023-07-08T11:36:17;7.37;;;3.20;;
68866;SDS011;56451;44.804;20.476;2023-07-08T11:38:48;5.85;;;3.40;;
68866;SDS011;56451;44.804;20.476;2023-07-08T11:41:25;9.52;;;3.60;;
68866;SDS011;56451;44.804;20.476;2023-07-08T11:44:04;4.47;;;3.20;;
68866;SDS011;56451;44.804;20.476;2023-07-08T11:46:32;5.63;;;3.38;;
68866;SDS011;56451;44.804;20.476;2023-07-08T11:49:11;6.67;;;3.30;;
68866;SDS011;56451;44.804;20.476;2023-07-08T11:51:39;4.57;;;3.05;;
68866;SDS011;56451;44.804;20.476;2023-07-08T11:54:20;5.47;;;3.63;;
68866;SDS011;56451;44.804;20.476;2023-07-08T11:59:37;6.53;;;2.95;;
68866;SDS011;56451;44.804;20.476;2023-07-08T12:07:48;8.32;;;3.40;;
68866;SDS011;56451;44.804;20.476;2023-07-08T12:10:18;6.43;;;3.60;;
68866;SDS011;56451;44.804;20.476;2023-07-08T12:12:51;4.03;;;2.83;;
68866;SDS011;56451;44.804;20.476;2023-07-08T12:17:48;5.25;;;2.70;;
68866;SDS011;56451;44.804;20.476;2023-07-08T12:22:50;4.72;;;2.97;;
68866;SDS011;56451;44.804;20.476;2023-07-08T12:25:18;5.30;;;3.15;;
68866;SDS011;56451;44.804;20.476;2023-07-08T12:27:47;4.80;;;3.27;;
68866;SDS011;56451;44.804;20.476;2023-07-08T12:30:14;6.40;;;3.10;;
68866;SDS011;56451;44.804;20.476;2023-07-08T12:32:41;9.30;;;3.08;;
68866;SDS011;56451;44.804;20.476;2023-07-08T12:38:13;6.45;;;2.83;;
68866;SDS011;56451;44.804;20.476;2023-07-08T12:40:55;4.67;;;2.97;;
68866;SDS011;56451;44.804;20.476;2023-07-08T12:43:26;5.93;;;2.92;;
68866;SDS011;56451;44.804;20.476;2023-07-08T12:45:52;6.22;;;2.80;;
68866;SDS011;56451;44.804;20.476;2023-07-08T12:48:18;5.10;;;3.10;;
68866;SDS011;56451;44.804;20.476;2023-07-08T12:50:44;6.53;;;3.17;;
68866;SDS011;56451;44.804;20.476;2023-07-08T12:53:10;5.57;;;2.87;;
68866;SDS011;56451;44.804;20.476;2023-07-08T12:55:42;7.50;;;2.72;;
68866;SDS011;56451;44.804;20.476;2023-07-08T12:58:12;5.53;;;2.90;;
68866;SDS011;56451;44.804;20.476;2023-07-08T13:00:41;7.45;;;3.25;;
68866;SDS011;56451;44.804;20.476;2023-07-08T13:03:12;8.63;;;3.00;;
68866;SDS011;56451;44.804;20.476;2023-07-08T13:05:41;3.23;;;2.67;;
68866;SDS011;56451;44.804;20.476;2023-07-08T13:08:11;5.30;;;2.85;;
68866;SDS011;56451;44.804;20.476;2023-07-08T13:10:38;5.35;;;2.80;;
68866;SDS011;56451;44.804;20.476;2023-07-08T13:13:07;5.50;;;3.03;;
68866;SDS011;56451;44.804;20.476;2023-07-08T13:15:37;5.15;;;3.10;;
68866;SDS011;56451;44.804;20.476;2023-07-08T13:18:31;8.50;;;3.00;;
68866;SDS011;56451;44.804;20.476;2023-07-08T13:21:02;5.75;;;3.30;;
68866;SDS011;56451;44.804;20.476;2023-07-08T13:23:30;5.13;;;3.15;;
68866;SDS011;56451;44.804;20.476;2023-07-08T13:25:56;5.40;;;3.15;;
68866;SDS011;56451;44.804;20.476;2023-07-08T13:28:24;5.43;;;3.08;;
68866;SDS011;56451;44.804;20.476;2023-07-08T13:30:54;5.33;;;3.40;;
68866;SDS011;56451;44.804;20.476;2023-07-08T13:33:22;5.03;;;3.08;;
68866;SDS011;56451;44.804;20.476;2023-07-08T13:35:50;6.32;;;2.70;;
68866;SDS011;56451;44.804;20.476;2023-07-08T13:38:19;3.83;;;3.03;;
68866;SDS011;56451;44.804;20.476;2023-07-08T13:40:48;5.30;;;3.15;;
68866;SDS011;56451;44.804;20.476;2023-07-08T13:43:29;7.13;;;2.90;;
68866;SDS011;56451;44.804;20.476;2023-07-08T13:46:01;7.68;;;2.80;;
68866;SDS011;56451;44.804;20.476;2023-07-08T13:48:39;5.35;;;2.70;;
68866;SDS011;56451;44.804;20.476;2023-07-08T13:53:58;6.00;;;3.10;;
68866;SDS011;56451;44.804;20.476;2023-07-08T13:56:31;6.80;;;3.23;;
68866;SDS011;56451;44.804;20.476;2023-07-08T13:59:06;7.25;;;2.88;;
68866;SDS011;56451;44.804;20.476;2023-07-08T14:01:36;4.07;;;2.95;;
68866;SDS011;56451;44.804;20.476;2023-07-08T14:04:04;6.03;;;2.85;;
68866;SDS011;56451;44.804;20.476;2023-07-08T14:06:33;7.15;;;3.30;;
68866;SDS011;56451;44.804;20.476;2023-07-08T14:09:06;5.30;;;3.03;;
68866;SDS011;56451;44.804;20.476;2023-07-08T14:11:43;3.92;;;2.90;;
68866;SDS011;56451;44.804;20.476;2023-07-08T14:14:09;4.88;;;3.30;;
68866;SDS011;56451;44.804;20.476;2023-07-08T14:16:37;5.38;;;3.00;;
68866;SDS011;56451;44.804;20.476;2023-07-08T14:19:07;7.50;;;3.17;;
68866;SDS011;56451;44.804;20.476;2023-07-08T14:21:39;7.03;;;3.47;;
68866;SDS011;56451;44.804;20.476;2023-07-08T14:24:08;6.47;;;3.13;;
68866;SDS011;56451;44.804;20.476;2023-07-08T14:26:36;3.83;;;2.95;;
68866;SDS011;56451;44.804;20.476;2023-07-08T14:29:02;5.32;;;3.03;;
68866;SDS011;56451;44.804;20.476;2023-07-08T14:31:28;6.93;;;3.13;;
68866;SDS011;56451;44.804;20.476;2023-07-08T14:33:58;5.43;;;3.27;;
68866;SDS011;56451;44.804;20.476;2023-07-08T14:36:29;4.88;;;3.25;;
68866;SDS011;56451;44.804;20.476;2023-07-08T14:38:55;4.03;;;2.85;;
68866;SDS011;56451;44.804;20.476;2023-07-08T14:41:23;9.63;;;3.10;;
68866;SDS011;56451;44.804;20.476;2023-07-08T14:43:49;3.92;;;3.03;;
68866;SDS011;56451;44.804;20.476;2023-07-08T14:46:23;4.17;;;2.70;;
68866;SDS011;56451;44.804;20.476;2023-07-08T14:48:49;4.35;;;2.90;;
68866;SDS011;56451;44.804;20.476;2023-07-08T14:51:15;4.93;;;3.20;;
68866;SDS011;56451;44.804;20.476;2023-07-08T14:53:41;7.37;;;3.10;;
68866;SDS011;56451;44.804;20.476;2023-07-08T14:56:13;7.30;;;2.97;;
68866;SDS011;56451;44.804;20.476;2023-07-08T14:58:43;3.53;;;2.30;;
68866;SDS011;56451;44.804;20.476;2023-07-08T15:01:16;6.80;;;2.83;;
68866;SDS011;56451;44.804;20.476;2023-07-08T15:03:45;8.02;;;3.55;;
68866;SDS011;56451;44.804;20.476;2023-07-08T15:06:11;4.57;;;2.83;;
68866;SDS011;56451;44.804;20.476;2023-07-08T15:08:37;4.00;;;2.85;;
68866;SDS011;56451;44.804;20.476;2023-07-08T15:11:04;4.45;;;2.60;;
68866;SDS011;56451;44.804;20.476;2023-07-08T15:13:32;5.53;;;2.63;;
68866;SDS011;56451;44.804;20.476;2023-07-08T15:16:00;5.97;;;3.17;;
68866;SDS011;56451;44.804;20.476;2023-07-08T15:18:26;5.77;;;2.93;;
68866;SDS011;56451;44.804;20.476;2023-07-08T15:20:52;8.57;;;3.15;;
68866;SDS011;56451;44.804;20.476;2023-07-08T15:23:19;7.18;;;3.03;;
68866;SDS011;56451;44.804;20.476;2023-07-08T15:25:45;5.50;;;2.92;;
68866;SDS011;56451;44.804;20.476;2023-07-08T15:28:20;5.53;;;2.90;;
68866;SDS011;56451;44.804;20.476;2023-07-08T15:31:00;5.78;;;2.97;;
68866;SDS011;56451;44.804;20.476;2023-07-08T15:33:27;5.38;;;2.80;;
68866;SDS011;56451;44.804;20.476;2023-07-08T15:35:53;7.93;;;3.30;;
68866;SDS011;56451;44.804;20.476;2023-07-08T15:38:19;4.27;;;3.20;;
68866;SDS011;56451;44.804;20.476;2023-07-08T15:40:47;4.25;;;3.17;;
68866;SDS011;56451;44.804;20.476;2023-07-08T15:43:13;5.45;;;3.13;;
68866;SDS011;56451;44.804;20.476;2023-07-08T15:45:40;7.13;;;2.83;;
68866;SDS011;56451;44.804;20.476;2023-07-08T15:48:16;9.73;;;3.17;;
68866;SDS011;56451;44.804;20.476;2023-07-08T15:50:43;6.50;;;3.03;;
68866;SDS011;56451;44.804;20.476;2023-07-08T15:53:10;5.60;;;3.10;;
68866;SDS011;56451;44.804;20.476;2023-07-08T15:55:37;5.25;;;3.17;;
68866;SDS011;56451;44.804;20.476;2023-07-08T15:58:10;5.30;;;3.13;;
68866;SDS011;56451;44.804;20.476;2023-07-08T16:00:40;4.60;;;2.95;;
68866;SDS011;56451;44.804;20.476;2023-07-08T16:03:09;5.33;;;3.20;;
68866;SDS011;56451;44.804;20.476;2023-07-08T16:05:38;6.28;;;3.35;;
68866;SDS011;56451;44.804;20.476;2023-07-08T16:08:04;5.03;;;3.10;;
68866;SDS011;56451;44.804;20.476;2023-07-08T16:10:30;6.72;;;3.20;;
68866;SDS011;56451;44.804;20.476;2023-07-08T16:12:57;5.63;;;3.28;;
68866;SDS011;56451;44.804;20.476;2023-07-08T16:15:27;4.93;;;3.20;;
68866;SDS011;56451;44.804;20.476;2023-07-08T16:17:55;6.13;;;3.00;;